createdAt,value
2022-09-13T00:00:41.495Z,16.92
2022-09-13T00:03:12.640Z,13.80
2022-09-13T00:05:40.096Z,12.77
2022-09-13T00:08:07.908Z,13.82
2022-09-13T00:10:37.416Z,13.85
2022-09-13T00:15:34.824Z,14.45
2022-09-13T00:18:02.295Z,14.63
2022-09-13T00:20:28.981Z,13.68
2022-09-13T00:22:55.492Z,13.05
2022-09-13T00:25:22.032Z,11.70
2022-09-13T00:27:48.660Z,14.73
2022-09-13T00:30:15.178Z,14.10
2022-09-13T00:32:42.012Z,14.90
2022-09-13T00:35:08.892Z,12.68
2022-09-13T00:37:35.528Z,14.90
2022-09-13T00:40:02.851Z,13.73
2022-09-13T00:42:32.720Z,13.75
2022-09-13T00:45:00.598Z,15.00
2022-09-13T00:47:59.215Z,14.32
2022-09-13T00:50:30.031Z,13.77
2022-09-13T00:53:19.141Z,13.98
2022-09-13T00:55:53.944Z,14.27
2022-09-13T00:58:34.645Z,13.70
2022-09-13T01:01:03.748Z,15.20
2022-09-13T01:03:34.082Z,14.93
2022-09-13T01:06:07.763Z,18.88
2022-09-13T01:08:39.481Z,17.27
2022-09-13T01:11:11.990Z,15.93
2022-09-13T01:13:39.414Z,15.48
2022-09-13T01:16:06.244Z,15.77
2022-09-13T01:18:32.904Z,16.13
2022-09-13T01:21:12.671Z,16.63
2022-09-13T01:23:45.342Z,17.42
2022-09-13T01:26:20.975Z,18.20
2022-09-13T01:28:56.644Z,17.60
2022-09-13T01:32:01.740Z,19.05
2022-09-13T01:34:57.639Z,17.95
2022-09-13T01:37:35.018Z,21.20
2022-09-13T01:40:05.558Z,22.40
2022-09-13T01:42:58.409Z,22.60
2022-09-13T01:45:39.268Z,22.73
2022-09-13T01:48:19.983Z,26.85
2022-09-13T01:50:49.913Z,24.52
2022-09-13T01:53:23.259Z,36.08
2022-09-13T01:56:05.631Z,31.25
2022-09-13T02:04:10.339Z,31.25
2022-09-13T02:06:51.691Z,28.85
2022-09-13T02:09:23.069Z,27.88
2022-09-13T02:11:56.268Z,27.50
2022-09-13T02:14:32.772Z,26.00
2022-09-13T02:17:05.712Z,21.80
2022-09-13T02:19:41.071Z,24.70
2022-09-13T02:22:11.575Z,23.58
2022-09-13T02:24:45.215Z,22.17
2022-09-13T02:27:19.176Z,21.05
2022-09-13T02:29:49.129Z,22.75
2022-09-13T02:32:27.604Z,21.40
2022-09-13T02:34:59.519Z,19.10
2022-09-13T02:37:30.099Z,25.20
2022-09-13T02:40:02.635Z,31.70
2022-09-13T02:42:44.324Z,25.75
2022-09-13T02:45:14.628Z,27.10
2022-09-13T02:48:16.388Z,38.60
2022-09-13T02:51:01.504Z,30.37
2022-09-13T02:53:34.414Z,40.47
2022-09-13T02:56:11.307Z,35.13
2022-09-13T02:59:01.971Z,34.35
2022-09-13T03:01:28.875Z,39.60
2022-09-13T03:03:55.546Z,38.60
2022-09-13T03:06:27.570Z,34.65
2022-09-13T03:08:58.936Z,34.95
2022-09-13T03:11:41.551Z,29.05
2022-09-13T03:14:29.473Z,28.70
2022-09-13T03:17:08.308Z,23.35
2022-09-13T03:20:07.536Z,24.67
2022-09-13T03:22:39.764Z,25.58
2022-09-13T03:25:28.752Z,26.20
2022-09-13T03:28:17.003Z,23.50
2022-09-13T03:30:51.132Z,23.15
2022-09-13T03:33:24.928Z,24.40
2022-09-13T03:35:57.024Z,24.35
2022-09-13T03:38:46.049Z,22.45
2022-09-13T03:41:20.334Z,22.48
2022-09-13T03:43:55.699Z,25.20
2022-09-13T03:46:31.079Z,30.00
2022-09-13T03:49:03.680Z,28.85
2022-09-13T03:51:30.778Z,28.92
2022-09-13T03:54:02.878Z,29.77
2022-09-13T03:58:55.853Z,28.40
2022-09-13T04:01:24.632Z,29.83
2022-09-13T04:03:56.353Z,36.30
2022-09-13T04:06:23.786Z,40.22
2022-09-13T04:08:50.462Z,35.10
2022-09-13T04:11:17.134Z,33.42
2022-09-13T04:13:43.720Z,31.58
2022-09-13T04:16:10.342Z,32.50
2022-09-13T04:18:37.021Z,32.10
2022-09-13T04:21:04.704Z,28.83
2022-09-13T04:23:31.725Z,35.22
2022-09-13T04:26:03.379Z,28.45
2022-09-13T04:28:29.991Z,25.00
2022-09-13T04:30:56.515Z,24.58
2022-09-13T04:33:23.284Z,26.75
2022-09-13T04:35:54.688Z,25.60
2022-09-13T04:38:21.273Z,30.10
2022-09-13T04:40:53.469Z,28.05
2022-09-13T04:43:20.485Z,30.83
2022-09-13T04:45:47.041Z,30.00
2022-09-13T04:48:13.612Z,31.70
2022-09-13T04:50:40.491Z,30.02
2022-09-13T04:53:08.361Z,36.10
2022-09-13T04:55:36.678Z,32.35
2022-09-13T04:58:04.852Z,33.80
2022-09-13T05:00:31.742Z,32.47
2022-09-13T05:02:58.494Z,37.90
2022-09-13T05:05:25.864Z,32.25
2022-09-13T05:07:53.047Z,35.75
2022-09-13T05:12:32.728Z,41.55
2022-09-13T05:14:59.311Z,35.90
2022-09-13T05:17:25.805Z,37.05
2022-09-13T05:19:53.405Z,34.40
2022-09-13T05:22:22.523Z,38.13
2022-09-13T05:24:49.119Z,33.13
2022-09-13T05:27:15.616Z,32.28
2022-09-13T05:29:42.164Z,32.80
2022-09-13T05:32:08.663Z,33.35
2022-09-13T05:34:35.320Z,34.53
2022-09-13T05:37:01.912Z,35.45
2022-09-13T05:39:54.016Z,32.40
2022-09-13T05:42:15.133Z,32.78
2022-09-13T05:44:41.616Z,34.30
2022-09-13T05:47:08.273Z,32.80
2022-09-13T05:49:41.753Z,32.58
2022-09-13T05:52:16.570Z,33.15
2022-09-13T05:54:43.098Z,33.95
2022-09-13T05:57:09.692Z,32.78
2022-09-13T05:59:36.234Z,31.60
2022-09-13T06:02:02.957Z,30.17
2022-09-13T06:04:29.460Z,32.08
2022-09-13T06:06:55.997Z,30.85
2022-09-13T06:09:22.728Z,31.40
2022-09-13T06:11:49.375Z,32.50
2022-09-13T06:14:15.861Z,31.70
2022-09-13T06:16:42.535Z,34.05
2022-09-13T06:19:09.032Z,32.35
2022-09-13T06:21:35.890Z,30.70
2022-09-13T06:24:03.901Z,31.83
2022-09-13T06:26:31.749Z,31.02
2022-09-13T06:28:58.532Z,48.38
2022-09-13T06:31:27.516Z,45.90
2022-09-13T06:33:59.427Z,34.00
2022-09-13T06:36:26.511Z,32.47
2022-09-13T06:38:53.099Z,27.73
2022-09-13T06:41:23.225Z,25.42
2022-09-13T06:43:55.288Z,25.90
2022-09-13T06:48:52.798Z,22.00
2022-09-13T06:51:22.274Z,18.13
2022-09-13T06:53:50.249Z,18.17
2022-09-13T06:56:32.501Z,20.88
2022-09-13T06:59:00.960Z,18.08
2022-09-13T07:01:33.038Z,17.08
2022-09-13T07:04:05.102Z,17.15
2022-09-13T07:06:40.672Z,17.75
2022-09-13T07:09:13.061Z,18.38
2022-09-13T07:11:41.113Z,15.52
2022-09-13T07:14:08.549Z,14.88
2022-09-13T07:16:37.964Z,17.00
2022-09-13T07:19:08.051Z,14.25
2022-09-13T07:21:38.093Z,16.85
2022-09-13T07:24:05.092Z,16.60
2022-09-13T07:26:31.970Z,16.52
2022-09-13T07:29:04.794Z,16.10
2022-09-13T07:31:34.735Z,17.10
2022-09-13T07:34:03.480Z,13.90
2022-09-13T07:36:32.091Z,15.40
2022-09-13T07:38:59.553Z,14.60
2022-09-13T07:43:45.626Z,16.70
2022-09-13T07:46:14.818Z,15.63
2022-09-13T07:48:43.585Z,15.13
2022-09-13T07:51:11.805Z,17.02
2022-09-13T07:56:08.968Z,14.35
2022-09-13T07:58:37.509Z,15.13
2022-09-13T08:01:24.655Z,12.85
2022-09-13T08:06:21.120Z,13.68
2022-09-13T08:08:48.123Z,12.52
2022-09-13T08:11:24.143Z,12.98
2022-09-13T08:13:52.221Z,11.93
2022-09-13T08:16:21.132Z,11.13
2022-09-13T08:18:50.228Z,12.15
2022-09-13T08:21:17.084Z,10.30
2022-09-13T08:23:44.078Z,10.73
2022-09-13T08:26:11.925Z,10.18
2022-09-13T08:28:40.591Z,8.45
2022-09-13T08:33:22.816Z,8.35
2022-09-13T08:35:51.787Z,6.75
2022-09-13T08:38:19.024Z,7.15
2022-09-13T08:40:51.673Z,5.93
2022-09-13T08:43:37.944Z,5.45
2022-09-13T08:46:29.909Z,6.43
2022-09-13T08:49:01.809Z,5.55
2022-09-13T08:53:59.679Z,6.45
2022-09-13T08:57:28.584Z,3.63
2022-09-13T09:00:21.202Z,4.82
2022-09-13T09:02:59.521Z,5.07
2022-09-13T09:05:29.950Z,4.57
2022-09-13T09:10:34.040Z,4.20
2022-09-13T09:13:23.830Z,3.75
2022-09-13T09:16:00.732Z,4.10
2022-09-13T09:18:37.771Z,3.88
2022-09-13T09:21:06.973Z,3.47
2022-09-13T09:23:36.546Z,3.35
2022-09-13T09:26:24.055Z,3.10
2022-09-13T09:29:05.699Z,3.58
2022-09-13T09:35:41.757Z,3.67
2022-09-13T09:38:43.823Z,2.83
2022-09-13T09:41:22.770Z,3.50
2022-09-13T09:44:13.765Z,2.95
2022-09-13T09:46:42.272Z,2.88
2022-09-13T09:49:38.435Z,3.08
2022-09-13T09:52:10.373Z,2.80
2022-09-13T09:57:08.094Z,2.45
2022-09-13T09:59:37.119Z,2.28
2022-09-13T10:02:17.524Z,2.58
2022-09-13T10:04:55.109Z,2.45
2022-09-13T10:07:32.809Z,2.63
2022-09-13T10:10:06.526Z,3.40
2022-09-13T10:12:35.979Z,3.20
2022-09-13T10:15:15.461Z,2.95
2022-09-13T10:17:42.032Z,3.53
2022-09-13T10:20:14.559Z,3.00
2022-09-13T10:22:42.912Z,2.67
2022-09-13T10:25:22.877Z,3.40
2022-09-13T10:28:00.346Z,3.60
2022-09-13T10:30:41.353Z,3.03
2022-09-13T10:33:25.832Z,3.57
2022-09-13T10:35:57.518Z,3.50
2022-09-13T10:38:31.927Z,3.15
2022-09-13T10:41:00.889Z,3.45
2022-09-13T10:43:29.932Z,2.75
2022-09-13T10:45:57.845Z,3.28
2022-09-13T10:48:24.647Z,3.33
2022-09-13T10:51:02.407Z,3.53
2022-09-13T10:53:40.714Z,4.78
2022-09-13T10:56:25.147Z,3.63
2022-09-13T10:59:11.796Z,3.42
2022-09-13T11:02:13.026Z,3.83
2022-09-13T11:04:45.716Z,2.97
2022-09-13T11:07:36.893Z,3.42
2022-09-13T11:10:28.030Z,2.90
2022-09-13T11:13:19.512Z,3.20
2022-09-13T11:16:06.163Z,3.08
2022-09-13T11:18:41.533Z,3.47
2022-09-13T11:21:32.857Z,3.40
2022-09-13T11:24:24.311Z,2.87
2022-09-13T11:27:15.000Z,2.47
2022-09-13T11:29:44.496Z,3.47
2022-09-13T11:32:28.048Z,2.85
2022-09-13T11:35:03.671Z,2.58
2022-09-13T11:37:39.735Z,3.60
2022-09-13T11:40:49.238Z,3.28
2022-09-13T11:43:34.564Z,3.35
2022-09-13T11:46:23.494Z,2.80
2022-09-13T11:49:20.484Z,2.80
2022-09-13T11:52:31.565Z,2.50
2022-09-13T11:55:25.522Z,3.00
2022-09-13T11:58:34.923Z,3.15
2022-09-13T12:01:08.629Z,2.55
2022-09-13T12:03:47.811Z,2.67
2022-09-13T12:06:25.845Z,2.97
2022-09-13T12:09:01.680Z,2.58
2022-09-13T12:11:34.043Z,2.50
2022-09-13T12:14:06.865Z,2.38
2022-09-13T12:16:40.485Z,2.50
2022-09-13T12:19:17.232Z,2.55
2022-09-13T12:21:44.859Z,2.50
2022-09-13T12:24:18.786Z,2.15
2022-09-13T12:26:45.329Z,2.20
2022-09-13T12:29:18.284Z,2.30
2022-09-13T12:31:44.999Z,2.75
2022-09-13T12:34:25.245Z,2.20
2022-09-13T12:36:54.862Z,2.35
2022-09-13T12:39:44.974Z,2.83
2022-09-13T12:42:38.208Z,2.40
2022-09-13T12:45:43.757Z,2.67
2022-09-13T12:48:43.568Z,2.90
2022-09-13T12:51:16.512Z,2.40
2022-09-13T12:53:52.479Z,2.92
2022-09-13T12:56:42.511Z,2.65
2022-09-13T12:59:30.310Z,2.55
2022-09-13T13:01:58.386Z,3.03
2022-09-13T13:04:33.249Z,2.92
2022-09-13T13:07:07.715Z,2.97
2022-09-13T13:09:44.982Z,3.08
2022-09-13T13:12:34.434Z,2.67
2022-09-13T13:15:04.731Z,3.25
2022-09-13T13:17:51.804Z,3.10
2022-09-13T13:20:52.285Z,3.78
2022-09-13T13:23:27.050Z,3.17
2022-09-13T13:26:21.048Z,4.22
2022-09-13T13:28:47.819Z,3.15
2022-09-13T13:31:35.482Z,3.45
2022-09-13T13:34:06.657Z,3.15
2022-09-13T13:36:39.661Z,2.67
2022-09-13T13:39:24.689Z,3.15
2022-09-13T13:42:01.485Z,3.15
2022-09-13T13:44:28.169Z,3.72
2022-09-13T13:47:14.628Z,3.58
2022-09-13T13:49:46.168Z,3.67
2022-09-13T13:52:16.567Z,3.50
2022-09-13T13:54:44.085Z,3.45
2022-09-13T13:57:41.013Z,4.35
2022-09-13T14:00:20.809Z,3.65
2022-09-13T14:02:50.470Z,3.35
2022-09-13T14:05:36.306Z,4.88
2022-09-13T14:08:33.965Z,3.40
2022-09-13T14:11:11.087Z,3.78
2022-09-13T14:13:37.783Z,3.95
2022-09-13T14:16:43.861Z,3.75
2022-09-13T14:19:31.313Z,4.10
2022-09-13T14:22:19.568Z,3.92
2022-09-13T14:24:51.415Z,4.40
2022-09-13T14:27:30.486Z,4.40
2022-09-13T14:30:04.478Z,4.43
2022-09-13T14:32:43.687Z,4.60
2022-09-13T14:35:24.680Z,3.78
2022-09-13T14:37:53.482Z,4.10
2022-09-13T14:40:27.772Z,4.25
2022-09-13T14:42:55.976Z,4.00
2022-09-13T14:45:41.817Z,4.00
2022-09-13T14:48:39.115Z,3.90
2022-09-13T14:51:23.992Z,4.28
2022-09-13T14:53:57.016Z,4.78
2022-09-13T14:56:43.056Z,4.53
2022-09-13T14:59:18.263Z,3.95
2022-09-13T15:01:45.013Z,4.45
2022-09-13T15:04:11.735Z,3.40
2022-09-13T15:06:41.029Z,4.15
2022-09-13T15:09:10.705Z,4.20
2022-09-13T15:11:57.079Z,5.18
2022-09-13T15:14:37.386Z,3.83
2022-09-13T15:17:09.589Z,4.30
2022-09-13T15:19:39.008Z,4.78
2022-09-13T15:22:14.092Z,4.57
2022-09-13T15:24:49.716Z,4.50
2022-09-13T15:27:38.025Z,4.28
2022-09-13T15:30:06.183Z,4.18
2022-09-13T15:32:43.984Z,4.47
2022-09-13T15:35:38.878Z,4.78
2022-09-13T15:38:17.548Z,3.38
2022-09-13T15:40:47.838Z,4.75
2022-09-13T15:43:14.453Z,4.43
2022-09-13T15:45:40.996Z,5.82
2022-09-13T15:48:08.337Z,4.93
2022-09-13T15:50:36.918Z,4.85
2022-09-13T15:53:11.570Z,6.75
2022-09-13T15:55:39.518Z,5.82
2022-09-13T15:58:06.050Z,5.30
2022-09-13T16:00:32.756Z,6.18
2022-09-13T16:03:00.057Z,5.75
2022-09-13T16:05:26.712Z,5.68
2022-09-13T16:07:54.939Z,4.90
2022-09-13T16:10:23.249Z,4.95
2022-09-13T16:12:51.578Z,4.90
2022-09-13T16:15:18.987Z,6.63
2022-09-13T16:17:45.640Z,5.32
2022-09-13T16:20:15.979Z,4.90
2022-09-13T16:22:43.396Z,5.30
2022-09-13T16:25:13.100Z,5.90
2022-09-13T16:27:40.708Z,5.63
2022-09-13T16:30:08.029Z,5.15
2022-09-13T16:32:34.651Z,5.20
2022-09-13T16:35:01.128Z,5.40
2022-09-13T16:37:27.685Z,4.38
2022-09-13T16:39:58.001Z,5.38
2022-09-13T16:42:24.918Z,5.38
2022-09-13T16:44:51.950Z,5.28
2022-09-13T16:47:18.885Z,5.38
2022-09-13T16:49:46.506Z,5.18
2022-09-13T16:52:13.404Z,5.85
2022-09-13T16:54:40.624Z,5.28
2022-09-13T16:57:10.343Z,5.70
2022-09-13T16:59:36.869Z,5.53
2022-09-13T17:02:03.960Z,6.60
2022-09-13T17:04:30.747Z,5.07
2022-09-13T17:06:57.612Z,5.15
2022-09-13T17:09:27.447Z,5.60
2022-09-13T17:11:54.537Z,5.32
2022-09-13T17:14:21.833Z,4.63
2022-09-13T17:16:52.624Z,5.45
2022-09-13T17:19:23.504Z,4.40
2022-09-13T17:21:51.241Z,4.90
2022-09-13T17:24:18.149Z,4.90
2022-09-13T17:26:46.906Z,4.55
2022-09-13T17:29:14.732Z,4.22
2022-09-13T17:31:43.237Z,5.72
2022-09-13T17:34:13.999Z,5.38
2022-09-13T17:36:41.675Z,4.88
2022-09-13T17:39:09.062Z,5.43
2022-09-13T17:41:36.515Z,4.82
2022-09-13T17:44:03.486Z,4.90
2022-09-13T17:46:33.630Z,4.80
2022-09-13T17:49:00.895Z,5.45
2022-09-13T17:51:30.156Z,6.00
2022-09-13T17:53:58.827Z,5.32
2022-09-13T17:56:29.723Z,5.43
2022-09-13T17:59:06.765Z,5.60
2022-09-13T18:01:37.690Z,5.70
2022-09-13T18:06:23.102Z,6.72
2022-09-13T18:08:53.532Z,6.22
2022-09-13T18:11:22.438Z,7.13
2022-09-13T18:13:52.489Z,8.85
2022-09-13T18:16:22.172Z,8.30
2022-09-13T18:18:51.734Z,8.73
2022-09-13T18:21:25.035Z,9.15
2022-09-13T18:23:54.923Z,9.50
2022-09-13T18:26:23.561Z,9.95
2022-09-13T18:28:58.342Z,9.50
2022-09-13T18:31:25.341Z,9.30
2022-09-13T18:34:12.612Z,10.40
2022-09-13T18:36:40.660Z,10.93
2022-09-13T18:39:12.341Z,8.68
2022-09-13T18:43:23.157Z,11.20
2022-09-13T18:46:04.583Z,11.23
2022-09-13T18:48:33.115Z,11.20
2022-09-13T18:51:00.554Z,10.75
2022-09-13T18:53:34.435Z,9.77
2022-09-13T18:56:10.008Z,10.60
2022-09-13T18:58:40.269Z,10.32
2022-09-13T19:01:13.792Z,11.10
2022-09-13T19:03:48.766Z,10.50
2022-09-13T19:06:27.639Z,11.68
2022-09-13T19:08:55.862Z,10.23
2022-09-13T19:11:45.404Z,10.88
2022-09-13T19:14:14.099Z,9.85
2022-09-13T19:16:41.073Z,11.50
2022-09-13T19:19:07.957Z,11.20
2022-09-13T19:21:36.150Z,12.38
2022-09-13T19:24:09.181Z,12.07
2022-09-13T19:26:39.108Z,12.60
2022-09-13T19:29:14.250Z,12.13
2022-09-13T19:31:43.658Z,11.95
2022-09-13T19:34:11.611Z,12.25
2022-09-13T19:38:58.295Z,11.63
2022-09-13T19:41:28.314Z,12.20
2022-09-13T19:44:01.454Z,12.35
2022-09-13T19:46:36.012Z,12.35
2022-09-13T19:49:03.471Z,11.55
2022-09-13T19:51:36.259Z,12.63
2022-09-13T19:54:04.915Z,14.52
2022-09-13T19:56:38.633Z,11.75
2022-09-13T19:59:07.544Z,12.95
2022-09-13T20:01:37.104Z,12.80
2022-09-13T20:04:09.973Z,12.75
2022-09-13T20:06:42.329Z,11.93
2022-09-13T20:09:10.998Z,13.20
2022-09-13T20:11:42.186Z,13.65
2022-09-13T20:14:09.954Z,12.27
2022-09-13T20:16:39.518Z,12.25
2022-09-13T20:19:29.680Z,11.88
2022-09-13T20:21:55.520Z,12.10
2022-09-13T20:24:22.203Z,11.70
2022-09-13T20:26:51.926Z,10.73
2022-09-13T20:29:19.061Z,11.60
2022-09-13T20:31:45.724Z,11.40
2022-09-13T20:34:15.140Z,10.73
2022-09-13T20:36:44.297Z,10.05
2022-09-13T20:39:12.540Z,10.35
2022-09-13T20:41:39.145Z,11.10
2022-09-13T20:44:07.697Z,11.35
2022-09-13T20:46:34.346Z,10.30
2022-09-13T20:49:01.455Z,10.20
2022-09-13T20:51:32.664Z,9.27
2022-09-13T20:54:01.085Z,10.20
2022-09-13T20:56:30.389Z,10.18
2022-09-13T20:59:00.284Z,11.52
2022-09-13T21:01:30.055Z,9.40
2022-09-13T21:03:57.448Z,9.48
2022-09-13T21:06:26.613Z,9.68
2022-09-13T21:08:54.221Z,8.88
2022-09-13T21:11:30.065Z,9.48
2022-09-13T21:14:00.052Z,9.93
2022-09-13T21:16:30.571Z,9.90
2022-09-13T21:18:57.629Z,9.25
2022-09-13T21:21:27.663Z,9.23
2022-09-13T21:23:55.765Z,9.07
2022-09-13T21:26:24.267Z,9.75
2022-09-13T21:28:51.190Z,7.80
2022-09-13T21:31:22.013Z,8.55
2022-09-13T21:33:49.538Z,8.15
2022-09-13T21:36:16.125Z,7.93
2022-09-13T21:38:42.693Z,8.25
2022-09-13T21:41:15.142Z,8.07
2022-09-13T21:43:42.556Z,8.27
2022-09-13T21:46:17.949Z,8.68
2022-09-13T21:48:47.294Z,7.18
2022-09-13T21:51:26.547Z,9.25
2022-09-13T21:53:58.725Z,7.95
2022-09-13T21:56:27.906Z,7.88
2022-09-13T21:58:58.363Z,8.40
2022-09-13T22:01:27.558Z,7.65
2022-09-13T22:03:54.709Z,7.68
2022-09-13T22:06:23.035Z,8.05
2022-09-13T22:08:55.076Z,8.65
2022-09-13T22:11:27.428Z,7.88
2022-09-13T22:13:55.355Z,7.82
2022-09-13T22:16:27.998Z,10.02
2022-09-13T22:19:08.773Z,10.20
2022-09-13T22:21:43.344Z,10.43
2022-09-13T22:24:14.410Z,9.07
2022-09-13T22:26:41.591Z,9.23
2022-09-13T22:29:09.863Z,9.77
2022-09-13T22:31:39.128Z,10.07
2022-09-13T22:34:09.929Z,11.07
2022-09-13T22:36:37.767Z,9.43
2022-09-13T22:39:05.143Z,11.73
2022-09-13T22:41:33.567Z,11.80
2022-09-13T22:44:01.864Z,11.13
2022-09-13T22:46:31.006Z,11.40
2022-09-13T22:48:57.587Z,11.32
2022-09-13T22:51:24.912Z,12.50
2022-09-13T22:53:52.987Z,11.85
2022-09-13T22:56:25.845Z,12.32
2022-09-13T22:59:00.467Z,13.43
2022-09-13T23:01:29.121Z,11.68
2022-09-13T23:03:56.792Z,12.32
2022-09-13T23:06:25.014Z,12.00
2022-09-13T23:08:54.633Z,10.40
2022-09-13T23:11:24.933Z,10.80
2022-09-13T23:13:53.684Z,10.82
2022-09-13T23:16:45.249Z,11.15
2022-09-13T23:19:13.131Z,10.13
2022-09-13T23:21:40.599Z,12.13
2022-09-13T23:24:11.172Z,11.93
2022-09-13T23:26:38.183Z,14.75
2022-09-13T23:29:04.972Z,14.65
2022-09-13T23:31:34.940Z,13.63
2022-09-13T23:34:03.792Z,12.50
2022-09-13T23:36:35.594Z,12.88
2022-09-13T23:39:03.921Z,12.82
2022-09-13T23:41:32.707Z,12.50
2022-09-13T23:44:00.221Z,11.18
2022-09-13T23:46:26.793Z,12.13
2022-09-13T23:48:53.397Z,12.20
2022-09-13T23:51:25.714Z,11.18
2022-09-13T23:53:56.758Z,11.82
2022-09-13T23:56:29.189Z,13.38
2022-09-13T23:59:00.619Z,16.05
